sensor_id;sensor_type;location;lat;lon;timestamp;P1;durP1;ratioP1;P2;durP2;ratioP2
3177;SDS011;38141;42.666;23.344;2023-05-27T00:01:38;22.00;;;14.43;;
3177;SDS011;38141;42.666;23.344;2023-05-27T00:04:05;24.17;;;14.60;;
3177;SDS011;38141;42.666;23.344;2023-05-27T00:06:32;24.03;;;15.33;;
3177;SDS011;38141;42.666;23.344;2023-05-27T00:09:00;25.90;;;16.80;;
3177;SDS011;38141;42.666;23.344;2023-05-27T00:11:27;23.93;;;14.80;;
3177;SDS011;38141;42.666;23.344;2023-05-27T00:13:55;25.00;;;16.53;;
3177;SDS011;38141;42.666;23.344;2023-05-27T00:16:22;21.20;;;14.50;;
3177;SDS011;38141;42.666;23.344;2023-05-27T00:18:49;17.20;;;12.43;;
3177;SDS011;38141;42.666;23.344;2023-05-27T00:21:17;14.97;;;11.03;;
3177;SDS011;38141;42.666;23.344;2023-05-27T00:23:45;13.00;;;9.50;;
3177;SDS011;38141;42.666;23.344;2023-05-27T00:26:12;9.97;;;7.33;;
3177;SDS011;38141;42.666;23.344;2023-05-27T00:28:39;8.80;;;6.13;;
3177;SDS011;38141;42.666;23.344;2023-05-27T00:31:08;7.50;;;6.30;;
3177;SDS011;38141;42.666;23.344;2023-05-27T00:33:35;10.00;;;7.30;;
3177;SDS011;38141;42.666;23.344;2023-05-27T00:36:02;13.90;;;9.20;;
3177;SDS011;38141;42.666;23.344;2023-05-27T00:38:29;14.20;;;10.27;;
3177;SDS011;38141;42.666;23.344;2023-05-27T00:40:55;14.43;;;9.57;;
3177;SDS011;38141;42.666;23.344;2023-05-27T00:43:23;13.83;;;8.97;;
3177;SDS011;38141;42.666;23.344;2023-05-27T00:45:50;13.03;;;9.03;;
3177;SDS011;38141;42.666;23.344;2023-05-27T00:48:18;13.23;;;9.10;;
3177;SDS011;38141;42.666;23.344;2023-05-27T00:50:46;10.93;;;7.63;;
3177;SDS011;38141;42.666;23.344;2023-05-27T00:53:13;8.93;;;7.30;;
3177;SDS011;38141;42.666;23.344;2023-05-27T00:55:40;11.57;;;8.20;;
3177;SDS011;38141;42.666;23.344;2023-05-27T00:58:07;9.13;;;6.17;;
3177;SDS011;38141;42.666;23.344;2023-05-27T01:00:35;11.47;;;7.47;;
3177;SDS011;38141;42.666;23.344;2023-05-27T01:03:03;16.03;;;9.87;;
3177;SDS011;38141;42.666;23.344;2023-05-27T01:05:33;10.40;;;7.37;;
3177;SDS011;38141;42.666;23.344;2023-05-27T01:08:03;5.80;;;4.53;;
3177;SDS011;38141;42.666;23.344;2023-05-27T01:10:40;4.20;;;3.30;;
3177;SDS011;38141;42.666;23.344;2023-05-27T01:13:12;5.93;;;4.53;;
3177;SDS011;38141;42.666;23.344;2023-05-27T01:15:42;7.33;;;6.40;;
3177;SDS011;38141;42.666;23.344;2023-05-27T01:18:10;8.70;;;6.43;;
3177;SDS011;38141;42.666;23.344;2023-05-27T01:20:43;6.80;;;5.87;;
3177;SDS011;38141;42.666;23.344;2023-05-27T01:23:12;5.33;;;4.83;;
3177;SDS011;38141;42.666;23.344;2023-05-27T01:25:40;12.83;;;4.90;;
3177;SDS011;38141;42.666;23.344;2023-05-27T01:28:06;7.73;;;5.40;;
3177;SDS011;38141;42.666;23.344;2023-05-27T01:30:34;10.07;;;6.33;;
3177;SDS011;38141;42.666;23.344;2023-05-27T01:33:03;8.00;;;6.50;;
3177;SDS011;38141;42.666;23.344;2023-05-27T01:35:35;7.87;;;6.20;;
3177;SDS011;38141;42.666;23.344;2023-05-27T01:38:09;7.67;;;6.00;;
3177;SDS011;38141;42.666;23.344;2023-05-27T01:40:43;6.00;;;4.90;;
3177;SDS011;38141;42.666;23.344;2023-05-27T01:43:11;5.80;;;5.17;;
3177;SDS011;38141;42.666;23.344;2023-05-27T01:45:38;6.03;;;4.80;;
3177;SDS011;38141;42.666;23.344;2023-05-27T01:48:05;6.97;;;5.37;;
3177;SDS011;38141;42.666;23.344;2023-05-27T01:50:34;6.60;;;5.43;;
3177;SDS011;38141;42.666;23.344;2023-05-27T01:53:02;7.37;;;5.00;;
3177;SDS011;38141;42.666;23.344;2023-05-27T01:55:30;5.97;;;5.07;;
3177;SDS011;38141;42.666;23.344;2023-05-27T01:57:58;5.60;;;4.70;;
3177;SDS011;38141;42.666;23.344;2023-05-27T02:00:25;6.57;;;4.70;;
3177;SDS011;38141;42.666;23.344;2023-05-27T02:02:52;5.60;;;4.27;;
3177;SDS011;38141;42.666;23.344;2023-05-27T02:05:19;5.03;;;4.30;;
3177;SDS011;38141;42.666;23.344;2023-05-27T02:07:45;4.47;;;4.00;;
3177;SDS011;38141;42.666;23.344;2023-05-27T02:10:12;5.43;;;4.50;;
3177;SDS011;38141;42.666;23.344;2023-05-27T02:12:39;5.10;;;4.23;;
3177;SDS011;38141;42.666;23.344;2023-05-27T02:15:08;5.73;;;3.53;;
3177;SDS011;38141;42.666;23.344;2023-05-27T02:17:35;5.30;;;3.07;;
3177;SDS011;38141;42.666;23.344;2023-05-27T02:20:03;4.70;;;3.10;;
3177;SDS011;38141;42.666;23.344;2023-05-27T02:22:30;4.33;;;3.07;;
3177;SDS011;38141;42.666;23.344;2023-05-27T02:24:57;4.73;;;3.60;;
3177;SDS011;38141;42.666;23.344;2023-05-27T02:27:24;4.37;;;3.70;;
3177;SDS011;38141;42.666;23.344;2023-05-27T02:29:50;5.60;;;4.23;;
3177;SDS011;38141;42.666;23.344;2023-05-27T02:32:19;6.30;;;5.10;;
3177;SDS011;38141;42.666;23.344;2023-05-27T02:34:45;5.30;;;4.53;;
3177;SDS011;38141;42.666;23.344;2023-05-27T02:37:13;5.80;;;4.50;;
3177;SDS011;38141;42.666;23.344;2023-05-27T02:39:39;5.37;;;3.97;;
3177;SDS011;38141;42.666;23.344;2023-05-27T02:42:06;4.57;;;3.37;;
3177;SDS011;38141;42.666;23.344;2023-05-27T02:44:33;4.90;;;3.40;;
3177;SDS011;38141;42.666;23.344;2023-05-27T02:47:00;4.57;;;3.00;;
3177;SDS011;38141;42.666;23.344;2023-05-27T02:49:28;3.43;;;2.80;;
3177;SDS011;38141;42.666;23.344;2023-05-27T02:51:55;3.63;;;3.10;;
3177;SDS011;38141;42.666;23.344;2023-05-27T02:54:22;4.40;;;3.40;;
3177;SDS011;38141;42.666;23.344;2023-05-27T02:56:48;4.40;;;2.77;;
3177;SDS011;38141;42.666;23.344;2023-05-27T02:59:15;4.33;;;3.57;;
3177;SDS011;38141;42.666;23.344;2023-05-27T03:01:42;3.83;;;3.03;;
3177;SDS011;38141;42.666;23.344;2023-05-27T03:04:09;6.70;;;3.10;;
3177;SDS011;38141;42.666;23.344;2023-05-27T03:06:37;6.37;;;3.40;;
3177;SDS011;38141;42.666;23.344;2023-05-27T03:09:04;4.00;;;2.97;;
3177;SDS011;38141;42.666;23.344;2023-05-27T03:11:32;4.00;;;3.20;;
3177;SDS011;38141;42.666;23.344;2023-05-27T03:13:59;5.53;;;3.70;;
3177;SDS011;38141;42.666;23.344;2023-05-27T03:16:25;7.00;;;3.40;;
3177;SDS011;38141;42.666;23.344;2023-05-27T03:18:52;3.93;;;3.20;;
3177;SDS011;38141;42.666;23.344;2023-05-27T03:21:19;5.10;;;3.40;;
3177;SDS011;38141;42.666;23.344;2023-05-27T03:23:48;4.23;;;3.50;;
3177;SDS011;38141;42.666;23.344;2023-05-27T03:26:15;4.37;;;3.87;;
3177;SDS011;38141;42.666;23.344;2023-05-27T03:28:42;6.90;;;4.10;;
3177;SDS011;38141;42.666;23.344;2023-05-27T03:31:09;5.13;;;4.07;;
3177;SDS011;38141;42.666;23.344;2023-05-27T03:33:37;4.87;;;3.70;;
3177;SDS011;38141;42.666;23.344;2023-05-27T03:36:06;6.23;;;4.07;;
3177;SDS011;38141;42.666;23.344;2023-05-27T03:38:33;4.10;;;3.70;;
3177;SDS011;38141;42.666;23.344;2023-05-27T03:41:04;5.53;;;4.47;;
3177;SDS011;38141;42.666;23.344;2023-05-27T03:43:31;6.73;;;4.90;;
3177;SDS011;38141;42.666;23.344;2023-05-27T03:45:58;11.43;;;8.73;;
3177;SDS011;38141;42.666;23.344;2023-05-27T03:48:24;7.67;;;5.93;;
3177;SDS011;38141;42.666;23.344;2023-05-27T03:50:51;6.30;;;4.87;;
3177;SDS011;38141;42.666;23.344;2023-05-27T03:53:18;7.90;;;6.57;;
3177;SDS011;38141;42.666;23.344;2023-05-27T03:55:45;10.63;;;6.97;;
3177;SDS011;38141;42.666;23.344;2023-05-27T03:58:14;8.80;;;5.90;;
3177;SDS011;38141;42.666;23.344;2023-05-27T04:00:41;8.37;;;6.53;;
3177;SDS011;38141;42.666;23.344;2023-05-27T04:03:13;12.50;;;7.13;;
3177;SDS011;38141;42.666;23.344;2023-05-27T04:05:39;9.00;;;7.37;;
3177;SDS011;38141;42.666;23.344;2023-05-27T04:08:06;10.93;;;6.60;;
3177;SDS011;38141;42.666;23.344;2023-05-27T04:10:41;20.03;;;6.67;;
3177;SDS011;38141;42.666;23.344;2023-05-27T04:13:08;12.30;;;6.80;;
3177;SDS011;38141;42.666;23.344;2023-05-27T04:15:37;10.80;;;7.23;;
3177;SDS011;38141;42.666;23.344;2023-05-27T04:18:04;10.50;;;7.83;;
3177;SDS011;38141;42.666;23.344;2023-05-27T04:20:36;11.93;;;8.03;;
3177;SDS011;38141;42.666;23.344;2023-05-27T04:23:05;11.47;;;6.83;;
3177;SDS011;38141;42.666;23.344;2023-05-27T04:25:32;8.77;;;6.80;;
3177;SDS011;38141;42.666;23.344;2023-05-27T04:28:02;10.67;;;7.10;;
3177;SDS011;38141;42.666;23.344;2023-05-27T04:30:30;12.50;;;8.87;;
3177;SDS011;38141;42.666;23.344;2023-05-27T04:32:59;12.23;;;9.03;;
3177;SDS011;38141;42.666;23.344;2023-05-27T04:35:27;16.33;;;9.50;;
3177;SDS011;38141;42.666;23.344;2023-05-27T04:37:56;13.30;;;9.20;;
3177;SDS011;38141;42.666;23.344;2023-05-27T04:40:24;14.57;;;9.20;;
3177;SDS011;38141;42.666;23.344;2023-05-27T04:42:51;12.20;;;8.73;;
3177;SDS011;38141;42.666;23.344;2023-05-27T04:45:18;11.67;;;8.60;;
3177;SDS011;38141;42.666;23.344;2023-05-27T04:47:46;12.47;;;9.30;;
3177;SDS011;38141;42.666;23.344;2023-05-27T04:50:16;12.53;;;8.53;;
3177;SDS011;38141;42.666;23.344;2023-05-27T04:52:44;12.70;;;9.13;;
3177;SDS011;38141;42.666;23.344;2023-05-27T04:55:21;11.27;;;8.63;;
3177;SDS011;38141;42.666;23.344;2023-05-27T04:57:48;12.60;;;8.77;;
3177;SDS011;38141;42.666;23.344;2023-05-27T05:00:16;10.00;;;7.40;;
3177;SDS011;38141;42.666;23.344;2023-05-27T05:02:48;10.53;;;7.27;;
3177;SDS011;38141;42.666;23.344;2023-05-27T05:05:34;9.43;;;7.43;;
3177;SDS011;38141;42.666;23.344;2023-05-27T05:08:03;11.03;;;8.30;;
3177;SDS011;38141;42.666;23.344;2023-05-27T05:10:35;8.53;;;7.13;;
3177;SDS011;38141;42.666;23.344;2023-05-27T05:13:04;12.07;;;6.93;;
3177;SDS011;38141;42.666;23.344;2023-05-27T05:15:35;9.70;;;7.20;;
3177;SDS011;38141;42.666;23.344;2023-05-27T05:18:04;8.33;;;6.43;;
3177;SDS011;38141;42.666;23.344;2023-05-27T05:20:31;10.07;;;6.73;;
3177;SDS011;38141;42.666;23.344;2023-05-27T05:22:59;8.10;;;5.90;;
3177;SDS011;38141;42.666;23.344;2023-05-27T05:25:26;8.50;;;6.03;;
3177;SDS011;38141;42.666;23.344;2023-05-27T05:27:55;8.90;;;6.00;;
3177;SDS011;38141;42.666;23.344;2023-05-27T05:30:22;9.53;;;6.07;;
3177;SDS011;38141;42.666;23.344;2023-05-27T05:32:51;9.80;;;5.93;;
3177;SDS011;38141;42.666;23.344;2023-05-27T05:35:18;6.90;;;5.30;;
3177;SDS011;38141;42.666;23.344;2023-05-27T05:37:45;5.87;;;5.20;;
3177;SDS011;38141;42.666;23.344;2023-05-27T05:40:14;7.13;;;5.57;;
3177;SDS011;38141;42.666;23.344;2023-05-27T05:42:41;9.50;;;5.00;;
3177;SDS011;38141;42.666;23.344;2023-05-27T05:45:08;12.03;;;4.60;;
3177;SDS011;38141;42.666;23.344;2023-05-27T05:47:37;8.37;;;5.03;;
3177;SDS011;38141;42.666;23.344;2023-05-27T05:50:05;9.37;;;5.10;;
3177;SDS011;38141;42.666;23.344;2023-05-27T05:52:32;8.87;;;4.93;;
3177;SDS011;38141;42.666;23.344;2023-05-27T05:54:59;7.53;;;5.27;;
3177;SDS011;38141;42.666;23.344;2023-05-27T05:57:28;11.00;;;6.40;;
3177;SDS011;38141;42.666;23.344;2023-05-27T06:00:10;8.27;;;6.17;;
3177;SDS011;38141;42.666;23.344;2023-05-27T06:02:38;8.60;;;6.07;;
3177;SDS011;38141;42.666;23.344;2023-05-27T06:05:05;12.37;;;6.20;;
3177;SDS011;38141;42.666;23.344;2023-05-27T06:07:33;10.20;;;6.73;;
3177;SDS011;38141;42.666;23.344;2023-05-27T06:10:00;8.37;;;6.13;;
3177;SDS011;38141;42.666;23.344;2023-05-27T06:12:28;13.23;;;7.13;;
3177;SDS011;38141;42.666;23.344;2023-05-27T06:14:55;8.37;;;6.73;;
3177;SDS011;38141;42.666;23.344;2023-05-27T06:17:22;8.80;;;7.20;;
3177;SDS011;38141;42.666;23.344;2023-05-27T06:19:50;11.70;;;7.07;;
3177;SDS011;38141;42.666;23.344;2023-05-27T06:22:18;11.60;;;7.70;;
3177;SDS011;38141;42.666;23.344;2023-05-27T06:24:45;12.17;;;7.73;;
3177;SDS011;38141;42.666;23.344;2023-05-27T06:27:12;10.70;;;7.57;;
3177;SDS011;38141;42.666;23.344;2023-05-27T06:29:40;10.60;;;6.97;;
3177;SDS011;38141;42.666;23.344;2023-05-27T06:32:09;9.77;;;7.37;;
3177;SDS011;38141;42.666;23.344;2023-05-27T06:34:36;11.40;;;8.27;;
3177;SDS011;38141;42.666;23.344;2023-05-27T06:37:02;11.73;;;7.33;;
3177;SDS011;38141;42.666;23.344;2023-05-27T06:39:29;13.07;;;7.57;;
3177;SDS011;38141;42.666;23.344;2023-05-27T06:41:56;15.40;;;8.23;;
3177;SDS011;38141;42.666;23.344;2023-05-27T06:44:23;10.67;;;7.90;;
3177;SDS011;38141;42.666;23.344;2023-05-27T06:52:31;12.43;;;8.57;;
3177;SDS011;38141;42.666;23.344;2023-05-27T06:54:58;14.87;;;8.00;;
3177;SDS011;38141;42.666;23.344;2023-05-27T06:57:25;11.30;;;7.60;;
3177;SDS011;38141;42.666;23.344;2023-05-27T07:02:53;12.17;;;7.90;;
3177;SDS011;38141;42.666;23.344;2023-05-27T07:07:56;16.80;;;8.10;;
3177;SDS011;38141;42.666;23.344;2023-05-27T07:10:23;13.70;;;9.70;;
3177;SDS011;38141;42.666;23.344;2023-05-27T07:12:54;10.73;;;7.83;;
3177;SDS011;38141;42.666;23.344;2023-05-27T07:15:20;13.57;;;7.63;;
3177;SDS011;38141;42.666;23.344;2023-05-27T07:17:47;14.20;;;8.30;;
3177;SDS011;38141;42.666;23.344;2023-05-27T07:20:17;13.13;;;8.57;;
3177;SDS011;38141;42.666;23.344;2023-05-27T07:22:44;12.00;;;8.20;;
3177;SDS011;38141;42.666;23.344;2023-05-27T07:25:11;11.70;;;8.00;;
3177;SDS011;38141;42.666;23.344;2023-05-27T07:27:37;11.80;;;7.90;;
3177;SDS011;38141;42.666;23.344;2023-05-27T07:30:05;17.47;;;7.97;;
3177;SDS011;38141;42.666;23.344;2023-05-27T07:32:35;10.73;;;7.90;;
3177;SDS011;38141;42.666;23.344;2023-05-27T07:35:04;14.37;;;9.10;;
3177;SDS011;38141;42.666;23.344;2023-05-27T07:37:47;12.67;;;8.47;;
3177;SDS011;38141;42.666;23.344;2023-05-27T07:40:13;13.87;;;9.33;;
3177;SDS011;38141;42.666;23.344;2023-05-27T07:42:40;16.70;;;9.20;;
3177;SDS011;38141;42.666;23.344;2023-05-27T07:45:08;43.73;;;22.90;;
3177;SDS011;38141;42.666;23.344;2023-05-27T07:47:35;28.27;;;21.33;;
3177;SDS011;38141;42.666;23.344;2023-05-27T07:50:02;18.53;;;12.30;;
3177;SDS011;38141;42.666;23.344;2023-05-27T07:52:29;28.27;;;19.77;;
3177;SDS011;38141;42.666;23.344;2023-05-27T07:54:58;23.50;;;18.47;;
3177;SDS011;38141;42.666;23.344;2023-05-27T07:57:24;36.47;;;25.70;;
3177;SDS011;38141;42.666;23.344;2023-05-27T08:00:06;22.03;;;10.90;;
3177;SDS011;38141;42.666;23.344;2023-05-27T08:02:49;52.13;;;35.33;;
3177;SDS011;38141;42.666;23.344;2023-05-27T08:05:52;25.67;;;14.50;;
3177;SDS011;38141;42.666;23.344;2023-05-27T08:08:33;13.57;;;9.30;;
3177;SDS011;38141;42.666;23.344;2023-05-27T08:16:36;11.33;;;8.83;;
3177;SDS011;38141;42.666;23.344;2023-05-27T08:19:17;11.30;;;8.03;;
3177;SDS011;38141;42.666;23.344;2023-05-27T08:21:48;11.93;;;8.33;;
3177;SDS011;38141;42.666;23.344;2023-05-27T08:24:29;12.17;;;7.27;;
3177;SDS011;38141;42.666;23.344;2023-05-27T08:36:24;9.07;;;6.90;;
3177;SDS011;38141;42.666;23.344;2023-05-27T08:38:51;7.50;;;6.50;;
3177;SDS011;38141;42.666;23.344;2023-05-27T08:41:18;8.50;;;7.27;;
3177;SDS011;38141;42.666;23.344;2023-05-27T08:46:42;16.83;;;7.20;;
3177;SDS011;38141;42.666;23.344;2023-05-27T08:55:34;7.30;;;5.73;;
3177;SDS011;38141;42.666;23.344;2023-05-27T08:58:07;7.17;;;6.20;;
3177;SDS011;38141;42.666;23.344;2023-05-27T09:00:50;9.10;;;6.27;;
3177;SDS011;38141;42.666;23.344;2023-05-27T09:13:54;9.00;;;6.37;;
3177;SDS011;38141;42.666;23.344;2023-05-27T09:21:32;8.77;;;6.50;;
3177;SDS011;38141;42.666;23.344;2023-05-27T09:24:01;9.97;;;7.03;;
3177;SDS011;38141;42.666;23.344;2023-05-27T09:26:28;10.20;;;7.20;;
3177;SDS011;38141;42.666;23.344;2023-05-27T09:28:57;15.43;;;6.50;;
3177;SDS011;38141;42.666;23.344;2023-05-27T09:31:28;9.90;;;7.10;;
3177;SDS011;38141;42.666;23.344;2023-05-27T09:33:54;8.77;;;6.13;;
3177;SDS011;38141;42.666;23.344;2023-05-27T09:36:21;10.53;;;6.73;;
3177;SDS011;38141;42.666;23.344;2023-05-27T09:38:50;15.07;;;6.47;;
3177;SDS011;38141;42.666;23.344;2023-05-27T09:41:22;16.37;;;6.90;;
3177;SDS011;38141;42.666;23.344;2023-05-27T09:43:54;14.27;;;6.70;;
3177;SDS011;38141;42.666;23.344;2023-05-27T09:46:25;8.57;;;7.17;;
3177;SDS011;38141;42.666;23.344;2023-05-27T09:48:53;11.73;;;7.10;;
3177;SDS011;38141;42.666;23.344;2023-05-27T09:51:20;9.93;;;6.33;;
3177;SDS011;38141;42.666;23.344;2023-05-27T09:53:49;11.43;;;7.17;;
3177;SDS011;38141;42.666;23.344;2023-05-27T09:56:19;15.63;;;10.57;;
3177;SDS011;38141;42.666;23.344;2023-05-27T09:58:48;17.33;;;11.23;;
3177;SDS011;38141;42.666;23.344;2023-05-27T10:03:51;10.37;;;7.60;;
3177;SDS011;38141;42.666;23.344;2023-05-27T10:06:18;7.65;;;6.68;;
3177;SDS011;38141;42.666;23.344;2023-05-27T10:08:46;7.00;;;6.30;;
3177;SDS011;38141;42.666;23.344;2023-05-27T10:11:13;7.00;;;6.30;;
3177;SDS011;38141;42.666;23.344;2023-05-27T10:13:40;7.30;;;6.47;;
3177;SDS011;38141;42.666;23.344;2023-05-27T10:16:17;9.15;;;6.60;;
3177;SDS011;38141;42.666;23.344;2023-05-27T10:18:46;9.80;;;6.65;;
3177;SDS011;38141;42.666;23.344;2023-05-27T10:21:19;9.40;;;6.68;;
3177;SDS011;38141;42.666;23.344;2023-05-27T10:23:58;9.50;;;7.70;;
3177;SDS011;38141;42.666;23.344;2023-05-27T10:26:39;9.38;;;6.30;;
3177;SDS011;38141;42.666;23.344;2023-05-27T10:29:07;10.85;;;8.57;;
3177;SDS011;38141;42.666;23.344;2023-05-27T10:31:43;8.88;;;7.22;;
3177;SDS011;38141;42.666;23.344;2023-05-27T10:34:11;7.07;;;6.32;;
3177;SDS011;38141;42.666;23.344;2023-05-27T10:36:40;9.70;;;6.68;;
3177;SDS011;38141;42.666;23.344;2023-05-27T10:39:13;7.07;;;6.20;;
3177;SDS011;38141;42.666;23.344;2023-05-27T10:41:41;6.93;;;6.22;;
3177;SDS011;38141;42.666;23.344;2023-05-27T10:44:09;6.80;;;6.10;;
3177;SDS011;38141;42.666;23.344;2023-05-27T10:46:40;12.07;;;6.72;;
3177;SDS011;38141;42.666;23.344;2023-05-27T10:49:13;7.80;;;6.28;;
3177;SDS011;38141;42.666;23.344;2023-05-27T10:51:43;6.97;;;6.32;;
3177;SDS011;38141;42.666;23.344;2023-05-27T10:54:10;7.35;;;5.60;;
3177;SDS011;38141;42.666;23.344;2023-05-27T10:56:47;6.15;;;5.00;;
3177;SDS011;38141;42.666;23.344;2023-05-27T10:59:15;6.95;;;6.22;;
3177;SDS011;38141;42.666;23.344;2023-05-27T11:01:48;9.98;;;6.80;;
3177;SDS011;38141;42.666;23.344;2023-05-27T11:04:17;8.85;;;6.75;;
3177;SDS011;38141;42.666;23.344;2023-05-27T11:06:57;6.87;;;6.17;;
3177;SDS011;38141;42.666;23.344;2023-05-27T11:09:25;15.63;;;11.18;;
3177;SDS011;38141;42.666;23.344;2023-05-27T11:14:27;10.27;;;6.33;;
3177;SDS011;38141;42.666;23.344;2023-05-27T11:16:53;8.05;;;6.15;;
3177;SDS011;38141;42.666;23.344;2023-05-27T11:19:20;7.53;;;6.27;;
3177;SDS011;38141;42.666;23.344;2023-05-27T11:21:48;7.38;;;6.68;;
3177;SDS011;38141;42.666;23.344;2023-05-27T11:24:16;8.40;;;6.17;;
3177;SDS011;38141;42.666;23.344;2023-05-27T11:26:44;10.40;;;6.47;;
3177;SDS011;38141;42.666;23.344;2023-05-27T11:29:12;7.17;;;6.47;;
3177;SDS011;38141;42.666;23.344;2023-05-27T11:31:40;9.10;;;6.90;;
3177;SDS011;38141;42.666;23.344;2023-05-27T11:34:11;7.32;;;6.25;;
3177;SDS011;38141;42.666;23.344;2023-05-27T11:36:39;9.40;;;6.80;;
3177;SDS011;38141;42.666;23.344;2023-05-27T11:39:09;7.57;;;6.63;;
3177;SDS011;38141;42.666;23.344;2023-05-27T11:41:48;9.93;;;6.43;;
3177;SDS011;38141;42.666;23.344;2023-05-27T11:44:18;10.40;;;6.40;;
3177;SDS011;38141;42.666;23.344;2023-05-27T11:46:46;8.73;;;6.47;;
3177;SDS011;38141;42.666;23.344;2023-05-27T11:49:14;9.30;;;7.13;;
3177;SDS011;38141;42.666;23.344;2023-05-27T11:51:41;9.77;;;6.80;;
3177;SDS011;38141;42.666;23.344;2023-05-27T11:54:16;10.23;;;7.97;;
3177;SDS011;38141;42.666;23.344;2023-05-27T11:56:44;12.35;;;7.55;;
3177;SDS011;38141;42.666;23.344;2023-05-27T11:59:12;7.60;;;6.80;;
3177;SDS011;38141;42.666;23.344;2023-05-27T12:01:39;9.32;;;7.22;;
3177;SDS011;38141;42.666;23.344;2023-05-27T12:04:06;10.13;;;7.40;;
3177;SDS011;38141;42.666;23.344;2023-05-27T12:06:33;7.25;;;6.53;;
3177;SDS011;38141;42.666;23.344;2023-05-27T12:09:01;8.77;;;7.00;;
3177;SDS011;38141;42.666;23.344;2023-05-27T12:11:29;8.70;;;6.93;;
3177;SDS011;38141;42.666;23.344;2023-05-27T12:13:55;8.80;;;6.43;;
3177;SDS011;38141;42.666;23.344;2023-05-27T12:16:23;8.48;;;6.85;;
3177;SDS011;38141;42.666;23.344;2023-05-27T12:18:50;14.30;;;7.70;;
3177;SDS011;38141;42.666;23.344;2023-05-27T12:21:17;7.32;;;6.45;;
3177;SDS011;38141;42.666;23.344;2023-05-27T12:23:44;12.82;;;6.72;;
3177;SDS011;38141;42.666;23.344;2023-05-27T12:26:12;8.60;;;6.80;;
3177;SDS011;38141;42.666;23.344;2023-05-27T12:28:40;8.02;;;7.22;;
3177;SDS011;38141;42.666;23.344;2023-05-27T12:31:08;10.60;;;6.57;;
3177;SDS011;38141;42.666;23.344;2023-05-27T12:33:36;8.65;;;5.97;;
3177;SDS011;38141;42.666;23.344;2023-05-27T12:36:03;6.63;;;5.93;;
3177;SDS011;38141;42.666;23.344;2023-05-27T12:38:31;7.47;;;6.50;;
3177;SDS011;38141;42.666;23.344;2023-05-27T12:40:58;7.95;;;6.75;;
3177;SDS011;38141;42.666;23.344;2023-05-27T12:43:25;10.17;;;7.50;;
3177;SDS011;38141;42.666;23.344;2023-05-27T12:45:51;12.63;;;7.15;;
3177;SDS011;38141;42.666;23.344;2023-05-27T12:48:20;8.18;;;7.07;;
3177;SDS011;38141;42.666;23.344;2023-05-27T12:50:48;7.93;;;6.53;;
3177;SDS011;38141;42.666;23.344;2023-05-27T12:53:15;11.82;;;7.18;;
3177;SDS011;38141;42.666;23.344;2023-05-27T12:55:42;6.53;;;5.93;;
3177;SDS011;38141;42.666;23.344;2023-05-27T12:58:10;7.82;;;6.55;;
3177;SDS011;38141;42.666;23.344;2023-05-27T13:00:37;34.42;;;23.17;;
3177;SDS011;38141;42.666;23.344;2023-05-27T13:03:04;6.78;;;6.07;;
3177;SDS011;38141;42.666;23.344;2023-05-27T13:05:30;8.63;;;6.67;;
3177;SDS011;38141;42.666;23.344;2023-05-27T13:07:59;7.40;;;6.03;;
3177;SDS011;38141;42.666;23.344;2023-05-27T13:10:27;10.27;;;6.07;;
3177;SDS011;38141;42.666;23.344;2023-05-27T13:12:54;10.23;;;5.90;;
3177;SDS011;38141;42.666;23.344;2023-05-27T13:15:22;7.37;;;6.47;;
3177;SDS011;38141;42.666;23.344;2023-05-27T13:17:49;7.00;;;6.33;;
3177;SDS011;38141;42.666;23.344;2023-05-27T13:20:17;8.60;;;6.70;;
3177;SDS011;38141;42.666;23.344;2023-05-27T13:22:45;10.73;;;7.00;;
3177;SDS011;38141;42.666;23.344;2023-05-27T13:25:14;7.00;;;6.13;;
3177;SDS011;38141;42.666;23.344;2023-05-27T13:27:42;8.63;;;6.47;;
3177;SDS011;38141;42.666;23.344;2023-05-27T13:30:11;8.40;;;6.20;;
3177;SDS011;38141;42.666;23.344;2023-05-27T13:32:39;9.30;;;6.80;;
3177;SDS011;38141;42.666;23.344;2023-05-27T13:35:08;7.80;;;6.40;;
3177;SDS011;38141;42.666;23.344;2023-05-27T13:37:35;7.57;;;6.40;;
3177;SDS011;38141;42.666;23.344;2023-05-27T13:40:03;7.73;;;6.67;;
3177;SDS011;38141;42.666;23.344;2023-05-27T13:42:32;6.83;;;5.93;;
3177;SDS011;38141;42.666;23.344;2023-05-27T13:44:58;7.63;;;6.57;;
3177;SDS011;38141;42.666;23.344;2023-05-27T13:47:25;8.30;;;6.77;;
3177;SDS011;38141;42.666;23.344;2023-05-27T13:49:52;7.37;;;6.17;;
3177;SDS011;38141;42.666;23.344;2023-05-27T13:52:19;9.30;;;6.60;;
3177;SDS011;38141;42.666;23.344;2023-05-27T13:54:45;6.63;;;5.93;;
3177;SDS011;38141;42.666;23.344;2023-05-27T13:57:12;7.27;;;6.50;;
3177;SDS011;38141;42.666;23.344;2023-05-27T13:59:40;12.33;;;9.23;;
3177;SDS011;38141;42.666;23.344;2023-05-27T14:02:07;6.70;;;5.97;;
3177;SDS011;38141;42.666;23.344;2023-05-27T14:04:34;8.00;;;6.33;;
3177;SDS011;38141;42.666;23.344;2023-05-27T14:07:01;8.47;;;6.60;;
3177;SDS011;38141;42.666;23.344;2023-05-27T14:09:28;7.00;;;6.20;;
3177;SDS011;38141;42.666;23.344;2023-05-27T14:11:55;7.97;;;6.93;;
3177;SDS011;38141;42.666;23.344;2023-05-27T14:14:22;8.00;;;6.67;;
3177;SDS011;38141;42.666;23.344;2023-05-27T14:16:50;7.43;;;6.17;;
3177;SDS011;38141;42.666;23.344;2023-05-27T14:19:17;8.97;;;6.40;;
3177;SDS011;38141;42.666;23.344;2023-05-27T14:21:44;7.37;;;5.70;;
3177;SDS011;38141;42.666;23.344;2023-05-27T14:24:11;7.07;;;6.37;;
3177;SDS011;38141;42.666;23.344;2023-05-27T14:26:38;8.00;;;6.60;;
3177;SDS011;38141;42.666;23.344;2023-05-27T14:29:06;7.17;;;6.30;;
3177;SDS011;38141;42.666;23.344;2023-05-27T14:31:32;8.67;;;5.87;;
3177;SDS011;38141;42.666;23.344;2023-05-27T14:34:01;7.40;;;6.00;;
3177;SDS011;38141;42.666;23.344;2023-05-27T14:36:27;9.10;;;7.70;;
3177;SDS011;38141;42.666;23.344;2023-05-27T14:38:54;8.33;;;6.53;;
3177;SDS011;38141;42.666;23.344;2023-05-27T14:41:21;9.47;;;6.63;;
3177;SDS011;38141;42.666;23.344;2023-05-27T14:43:50;7.90;;;6.47;;
3177;SDS011;38141;42.666;23.344;2023-05-27T14:46:17;7.37;;;6.00;;
3177;SDS011;38141;42.666;23.344;2023-05-27T14:48:44;9.57;;;7.47;;
3177;SDS011;38141;42.666;23.344;2023-05-27T14:51:12;20.10;;;13.63;;
3177;SDS011;38141;42.666;23.344;2023-05-27T14:53:39;10.50;;;6.90;;
3177;SDS011;38141;42.666;23.344;2023-05-27T14:56:06;7.63;;;6.10;;
3177;SDS011;38141;42.666;23.344;2023-05-27T14:58:33;8.27;;;6.63;;
3177;SDS011;38141;42.666;23.344;2023-05-27T15:01:00;6.77;;;6.00;;
3177;SDS011;38141;42.666;23.344;2023-05-27T15:03:30;8.40;;;6.27;;
3177;SDS011;38141;42.666;23.344;2023-05-27T15:05:57;7.20;;;6.33;;
3177;SDS011;38141;42.666;23.344;2023-05-27T15:08:26;7.57;;;6.30;;
3177;SDS011;38141;42.666;23.344;2023-05-27T15:10:53;7.20;;;6.50;;
3177;SDS011;38141;42.666;23.344;2023-05-27T15:13:20;7.23;;;6.47;;
3177;SDS011;38141;42.666;23.344;2023-05-27T15:15:46;8.10;;;7.03;;
3177;SDS011;38141;42.666;23.344;2023-05-27T15:18:14;7.93;;;6.40;;
3177;SDS011;38141;42.666;23.344;2023-05-27T15:20:41;7.00;;;6.40;;
3177;SDS011;38141;42.666;23.344;2023-05-27T15:25:58;6.80;;;6.17;;
3177;SDS011;38141;42.666;23.344;2023-05-27T15:28:25;6.80;;;6.10;;
3177;SDS011;38141;42.666;23.344;2023-05-27T15:30:52;7.13;;;6.13;;
3177;SDS011;38141;42.666;23.344;2023-05-27T15:33:21;7.73;;;6.70;;
3177;SDS011;38141;42.666;23.344;2023-05-27T15:35:57;10.03;;;7.50;;
3177;SDS011;38141;42.666;23.344;2023-05-27T15:38:24;7.60;;;6.80;;
3177;SDS011;38141;42.666;23.344;2023-05-27T15:41:05;7.03;;;6.33;;
3177;SDS011;38141;42.666;23.344;2023-05-27T15:43:36;9.10;;;6.60;;
3177;SDS011;38141;42.666;23.344;2023-05-27T15:46:17;7.60;;;6.80;;
3177;SDS011;38141;42.666;23.344;2023-05-27T15:48:47;8.80;;;7.40;;